createdAt,value
2023-09-02T00:00:01.184Z,100.00
2023-09-02T00:01:02.805Z,100.00
2023-09-02T00:02:04.673Z,100.00
2023-09-02T00:04:08.994Z,100.00
2023-09-02T00:05:10.708Z,100.00
2023-09-02T00:06:12.322Z,100.00
2023-09-02T00:07:13.912Z,100.00
2023-09-02T00:08:15.494Z,100.00
2023-09-02T00:09:17.116Z,100.00
2023-09-02T00:10:18.840Z,100.00
2023-09-02T00:11:20.427Z,100.00
2023-09-02T00:12:22.007Z,100.00
2023-09-02T00:13:24.045Z,100.00
2023-09-02T00:14:25.629Z,100.00
2023-09-02T00:15:27.217Z,100.00
2023-09-02T00:16:28.895Z,100.00
2023-09-02T00:17:32.852Z,100.00
2023-09-02T00:18:34.515Z,100.00
2023-09-02T00:19:36.120Z,100.00
2023-09-02T00:20:37.712Z,100.00
2023-09-02T00:21:39.346Z,100.00
2023-09-02T00:22:41.693Z,100.00
2023-09-02T00:23:46.288Z,100.00
2023-09-02T00:24:48.037Z,100.00
2023-09-02T00:25:49.598Z,100.00
2023-09-02T00:26:51.178Z,100.00
2023-09-02T00:27:53.321Z,100.00
2023-09-02T00:28:54.894Z,100.00
2023-09-02T00:29:56.699Z,100.00
2023-09-02T00:30:58.285Z,100.00
2023-09-02T00:31:59.896Z,100.00
2023-09-02T00:33:02.014Z,100.00
2023-09-02T00:34:03.712Z,100.00
2023-09-02T00:35:05.766Z,100.00
2023-09-02T00:36:07.618Z,100.00
2023-09-02T00:37:09.375Z,100.00
2023-09-02T00:38:10.959Z,100.00
2023-09-02T00:39:12.548Z,100.00
2023-09-02T00:40:17.373Z,100.00
2023-09-02T00:41:40.365Z,100.00
2023-09-02T00:42:42.489Z,100.00
2023-09-02T00:43:44.090Z,100.00
2023-09-02T00:44:45.660Z,100.00
2023-09-02T00:45:47.384Z,100.00
2023-09-02T00:46:49.004Z,100.00
2023-09-02T00:47:51.283Z,100.00
2023-09-02T00:48:52.894Z,100.00
2023-09-02T00:49:54.497Z,100.00
2023-09-02T00:50:56.161Z,100.00
2023-09-02T00:51:57.701Z,100.00
2023-09-02T00:52:59.342Z,100.00
2023-09-02T00:54:00.971Z,100.00
2023-09-02T00:55:03.290Z,100.00
2023-09-02T00:56:05.342Z,100.00
2023-09-02T00:57:07.402Z,100.00
2023-09-02T00:58:09.006Z,100.00
2023-09-02T00:59:10.676Z,100.00
2023-09-02T01:00:14.497Z,100.00
2023-09-02T01:01:16.438Z,100.00
2023-09-02T01:02:18.390Z,100.00
2023-09-02T01:03:20.423Z,100.00
2023-09-02T01:04:22.741Z,100.00
2023-09-02T01:05:24.441Z,100.00
2023-09-02T01:06:26.147Z,100.00
2023-09-02T01:07:27.757Z,100.00
2023-09-02T01:08:34.511Z,100.00
2023-09-02T01:09:36.125Z,100.00
2023-09-02T01:10:38.487Z,100.00
2023-09-02T01:11:40.098Z,100.00
2023-09-02T01:12:41.823Z,100.00
2023-09-02T01:13:43.404Z,100.00
2023-09-02T01:14:45.363Z,100.00
2023-09-02T01:15:47.005Z,100.00
2023-09-02T01:16:48.768Z,100.00
2023-09-02T01:17:50.486Z,100.00
2023-09-02T01:18:52.089Z,100.00
2023-09-02T01:19:58.032Z,100.00
2023-09-02T01:21:20.795Z,100.00
2023-09-02T01:22:45.275Z,100.00
2023-09-02T01:24:08.659Z,100.00
2023-09-02T01:25:18.694Z,100.00
2023-09-02T01:26:31.130Z,100.00
2023-09-02T01:27:36.850Z,100.00
2023-09-02T01:28:41.581Z,100.00
2023-09-02T01:30:08.017Z,100.00
2023-09-02T01:31:11.536Z,100.00
2023-09-02T01:32:14.323Z,100.00
2023-09-02T01:33:17.094Z,100.00
2023-09-02T01:34:20.114Z,100.00
2023-09-02T01:35:26.091Z,100.00
2023-09-02T01:36:29.222Z,100.00
2023-09-02T01:37:36.216Z,100.00
2023-09-02T01:38:37.826Z,100.00
2023-09-02T01:39:40.423Z,100.00
2023-09-02T01:40:43.777Z,100.00
2023-09-02T01:41:45.864Z,100.00
2023-09-02T01:42:48.041Z,100.00
2023-09-02T01:43:49.869Z,100.00
2023-09-02T01:44:51.774Z,100.00
2023-09-02T01:45:54.012Z,100.00
2023-09-02T01:46:56.894Z,100.00
2023-09-02T01:47:59.188Z,100.00
2023-09-02T01:49:00.817Z,100.00
2023-09-02T01:50:06.044Z,100.00
2023-09-02T01:51:08.235Z,100.00
2023-09-02T01:52:09.906Z,100.00
2023-09-02T01:53:11.817Z,100.00
2023-09-02T01:54:13.607Z,100.00
2023-09-02T01:55:19.336Z,100.00
2023-09-02T01:56:21.017Z,100.00
2023-09-02T01:57:22.814Z,100.00
2023-09-02T01:58:24.709Z,100.00
2023-09-02T01:59:27.038Z,100.00
2023-09-02T02:00:29.380Z,100.00
2023-09-02T02:01:31.546Z,100.00
2023-09-02T02:02:33.283Z,100.00
2023-09-02T02:03:38.035Z,100.00
2023-09-02T02:04:40.606Z,100.00
2023-09-02T02:05:44.169Z,100.00
2023-09-02T02:06:47.152Z,100.00
2023-09-02T02:07:53.490Z,100.00
2023-09-02T02:09:04.499Z,100.00
2023-09-02T02:10:08.884Z,100.00
2023-09-02T02:11:10.488Z,100.00
2023-09-02T02:12:12.119Z,100.00
2023-09-02T02:13:14.090Z,100.00
2023-09-02T02:14:15.645Z,100.00
2023-09-02T02:15:17.918Z,100.00
2023-09-02T02:16:23.344Z,100.00
2023-09-02T02:17:25.733Z,100.00
2023-09-02T02:18:27.293Z,100.00
2023-09-02T02:19:28.913Z,100.00
2023-09-02T02:20:40.366Z,100.00
2023-09-02T02:21:42.156Z,100.00
2023-09-02T02:22:43.815Z,100.00
2023-09-02T02:23:45.423Z,100.00
2023-09-02T02:24:47.024Z,100.00
2023-09-02T02:25:48.604Z,100.00
2023-09-02T02:26:50.197Z,100.00
2023-09-02T02:27:51.735Z,100.00
2023-09-02T02:28:55.019Z,100.00
2023-09-02T02:29:57.178Z,100.00
2023-09-02T02:30:59.869Z,100.00
2023-09-02T02:32:02.520Z,100.00
2023-09-02T02:33:05.161Z,100.00
2023-09-02T02:34:06.764Z,100.00
2023-09-02T02:35:08.665Z,100.00
2023-09-02T02:36:11.356Z,100.00
2023-09-02T02:37:12.917Z,100.00
2023-09-02T02:38:14.516Z,100.00
2023-09-02T02:39:16.212Z,100.00
2023-09-02T02:40:17.781Z,100.00
2023-09-02T02:41:19.359Z,100.00
2023-09-02T02:42:23.614Z,100.00
2023-09-02T02:43:27.235Z,100.00
2023-09-02T02:44:28.824Z,100.00
2023-09-02T02:45:30.408Z,100.00
2023-09-02T02:46:32.130Z,100.00
2023-09-02T02:47:33.807Z,100.00
2023-09-02T02:48:35.496Z,100.00
2023-09-02T02:49:37.189Z,100.00
2023-09-02T02:50:38.893Z,100.00
2023-09-02T02:51:40.618Z,100.00
2023-09-02T02:52:42.367Z,100.00
2023-09-02T02:53:44.058Z,100.00
2023-09-02T02:54:45.802Z,100.00
2023-09-02T02:55:47.440Z,100.00
2023-09-02T02:56:49.096Z,100.00
2023-09-02T02:57:50.840Z,100.00
2023-09-02T02:58:52.727Z,100.00
2023-09-02T02:59:54.370Z,100.00
2023-09-02T03:01:06.865Z,100.00
2023-09-02T03:02:08.671Z,100.00
2023-09-02T03:03:13.951Z,100.00
2023-09-02T03:04:15.695Z,100.00
2023-09-02T03:05:20.151Z,100.00
2023-09-02T03:06:21.810Z,100.00
2023-09-02T03:07:23.657Z,100.00
2023-09-02T03:08:25.314Z,100.00
2023-09-02T03:09:26.888Z,100.00
2023-09-02T03:10:28.533Z,100.00
2023-09-02T03:11:30.190Z,100.00
2023-09-02T03:12:32.897Z,100.00
2023-09-02T03:13:37.622Z,100.00
2023-09-02T03:14:48.026Z,100.00
2023-09-02T03:15:51.176Z,100.00
2023-09-02T03:16:53.436Z,100.00
2023-09-02T03:17:55.400Z,100.00
2023-09-02T03:18:59.475Z,100.00
2023-09-02T03:20:04.935Z,100.00
2023-09-02T03:21:08.556Z,100.00
2023-09-02T03:22:11.744Z,100.00
2023-09-02T03:23:14.225Z,100.00
2023-09-02T03:24:16.960Z,100.00
2023-09-02T03:25:18.624Z,100.00
2023-09-02T03:26:21.256Z,100.00
2023-09-02T03:27:25.572Z,100.00
2023-09-02T03:28:27.365Z,100.00
2023-09-02T03:29:29.704Z,100.00
2023-09-02T03:30:33.653Z,100.00
2023-09-02T03:31:35.442Z,100.00
2023-09-02T03:32:38.755Z,100.00
2023-09-02T03:33:40.469Z,100.00
2023-09-02T03:34:43.631Z,100.00
2023-09-02T03:35:45.773Z,100.00
2023-09-02T03:36:47.385Z,100.00
2023-09-02T03:37:49.097Z,100.00
2023-09-02T03:38:50.915Z,100.00
2023-09-02T03:39:54.404Z,100.00
2023-09-02T03:40:57.079Z,100.00
2023-09-02T03:41:58.647Z,100.00
2023-09-02T03:43:00.255Z,100.00
2023-09-02T03:44:01.912Z,100.00
2023-09-02T03:45:06.759Z,100.00
2023-09-02T03:46:08.524Z,100.00
2023-09-02T03:47:10.459Z,100.00
2023-09-02T03:48:13.053Z,100.00
2023-09-02T03:49:14.954Z,100.00
2023-09-02T03:50:25.212Z,100.00
2023-09-02T03:51:27.790Z,100.00
2023-09-02T03:52:33.058Z,100.00
2023-09-02T03:53:34.769Z,100.00
2023-09-02T03:54:37.577Z,100.00
2023-09-02T03:55:39.404Z,100.00
2023-09-02T03:56:42.999Z,100.00
2023-09-02T03:57:44.638Z,100.00
2023-09-02T03:58:46.244Z,100.00
2023-09-02T03:59:49.284Z,100.00
2023-09-02T04:00:51.001Z,100.00
2023-09-02T04:01:53.094Z,100.00
2023-09-02T04:02:54.784Z,100.00
2023-09-02T04:03:56.508Z,100.00
2023-09-02T04:04:58.266Z,100.00
2023-09-02T04:06:00.999Z,100.00
2023-09-02T04:07:04.477Z,100.00
2023-09-02T04:08:06.406Z,100.00
2023-09-02T04:09:11.031Z,100.00
2023-09-02T04:10:12.724Z,100.00
2023-09-02T04:11:14.380Z,100.00
2023-09-02T04:12:16.009Z,100.00
2023-09-02T04:13:17.958Z,100.00
2023-09-02T04:14:19.837Z,100.00
2023-09-02T04:15:21.452Z,100.00
2023-09-02T04:16:23.114Z,100.00
2023-09-02T04:17:25.030Z,100.00
2023-09-02T04:18:26.858Z,100.00
2023-09-02T04:19:29.048Z,100.00
2023-09-02T04:20:31.323Z,100.00
2023-09-02T04:21:33.408Z,100.00
2023-09-02T04:22:35.051Z,100.00
2023-09-02T04:23:37.124Z,100.00
2023-09-02T04:24:44.565Z,100.00
2023-09-02T04:25:50.566Z,100.00
2023-09-02T04:26:53.143Z,100.00
2023-09-02T04:27:54.742Z,100.00
2023-09-02T04:28:57.013Z,100.00
2023-09-02T04:30:00.290Z,100.00
2023-09-02T04:31:04.143Z,100.00
2023-09-02T04:32:08.071Z,100.00
2023-09-02T04:33:10.469Z,100.00
2023-09-02T04:34:13.264Z,100.00
2023-09-02T04:35:15.914Z,100.00
2023-09-02T04:36:17.905Z,100.00
2023-09-02T04:37:19.904Z,100.00
2023-09-02T04:38:21.663Z,100.00
2023-09-02T04:39:26.268Z,100.00
2023-09-02T04:40:27.886Z,100.00
2023-09-02T04:41:29.510Z,100.00
2023-09-02T04:42:34.802Z,100.00
2023-09-02T04:43:38.900Z,100.00
2023-09-02T04:44:40.680Z,100.00
2023-09-02T04:45:43.152Z,100.00
2023-09-02T04:46:47.419Z,100.00
2023-09-02T04:47:50.220Z,100.00
2023-09-02T04:48:53.955Z,100.00
2023-09-02T04:49:56.797Z,100.00
2023-09-02T04:51:00.015Z,100.00
2023-09-02T04:52:05.035Z,100.00
2023-09-02T04:53:08.668Z,100.00
2023-09-02T04:54:13.063Z,100.00
2023-09-02T04:55:14.704Z,100.00
2023-09-02T04:56:16.342Z,100.00
2023-09-02T04:57:20.350Z,100.00
2023-09-02T04:58:24.101Z,100.00
2023-09-02T04:59:27.355Z,100.00
2023-09-02T05:00:29.619Z,100.00
2023-09-02T05:01:31.683Z,100.00
2023-09-02T05:02:34.579Z,100.00
2023-09-02T05:03:36.227Z,100.00
2023-09-02T05:04:37.810Z,100.00
2023-09-02T05:05:39.475Z,100.00
2023-09-02T05:06:43.976Z,100.00
2023-09-02T05:07:46.396Z,100.00
2023-09-02T05:08:55.144Z,100.00
2023-09-02T05:09:58.020Z,100.00
2023-09-02T05:11:00.118Z,100.00
2023-09-02T05:12:02.064Z,100.00
2023-09-02T05:13:04.035Z,100.00
2023-09-02T05:14:07.312Z,100.00
2023-09-02T05:15:09.738Z,100.00
2023-09-02T05:16:12.394Z,100.00
2023-09-02T05:17:14.102Z,97.81
2023-09-02T05:18:15.692Z,99.18
2023-09-02T05:19:17.326Z,99.96
2023-09-02T05:20:19.050Z,99.72
2023-09-02T05:21:20.723Z,100.00
2023-09-02T05:22:23.420Z,100.00
2023-09-02T05:23:25.214Z,100.00
2023-09-02T05:24:28.544Z,97.14
2023-09-02T05:25:30.275Z,100.00
2023-09-02T05:26:33.648Z,100.00
2023-09-02T05:27:37.638Z,100.00
2023-09-02T05:28:39.245Z,99.40
2023-09-02T05:29:40.919Z,100.00
2023-09-02T05:30:42.510Z,100.00
2023-09-02T05:31:44.178Z,98.95
2023-09-02T05:32:45.877Z,100.00
2023-09-02T05:33:48.144Z,99.65
2023-09-02T05:34:49.860Z,99.52
2023-09-02T05:35:52.613Z,99.04
2023-09-02T05:36:54.216Z,98.75
2023-09-02T05:37:55.935Z,98.35
2023-09-02T05:38:57.550Z,98.21
2023-09-02T05:39:59.273Z,97.02
2023-09-02T05:41:00.966Z,94.74
2023-09-02T05:42:02.558Z,95.16
2023-09-02T05:43:04.417Z,94.19
2023-09-02T05:44:06.367Z,94.10
2023-09-02T05:45:08.379Z,93.43
2023-09-02T05:46:10.002Z,91.66
2023-09-02T05:47:14.088Z,92.21
2023-09-02T05:48:16.092Z,91.65
2023-09-02T05:49:17.632Z,89.42
2023-09-02T05:50:19.280Z,89.69
2023-09-02T05:51:20.911Z,90.16
2023-09-02T05:52:22.508Z,89.38
2023-09-02T05:53:24.227Z,89.60
2023-09-02T05:54:25.847Z,91.17
2023-09-02T05:55:27.476Z,90.75
2023-09-02T05:56:29.137Z,89.61
2023-09-02T05:57:30.733Z,90.17
2023-09-02T05:58:32.358Z,87.62
2023-09-02T05:59:33.994Z,88.20
2023-09-02T06:00:37.356Z,88.79
2023-09-02T06:01:39.084Z,87.83
2023-09-02T06:02:40.816Z,86.35
2023-09-02T06:03:43.277Z,83.88
2023-09-02T06:04:44.953Z,82.78
2023-09-02T06:05:46.613Z,84.50
2023-09-02T06:06:48.223Z,80.64
2023-09-02T06:07:49.809Z,79.94
2023-09-02T06:08:51.512Z,78.62
2023-09-02T06:09:53.130Z,77.35
2023-09-02T06:11:01.177Z,73.52
2023-09-02T06:12:02.836Z,71.71
2023-09-02T06:13:04.638Z,71.17
2023-09-02T06:14:06.217Z,72.02
2023-09-02T06:15:08.439Z,71.07
2023-09-02T06:16:10.030Z,69.13
2023-09-02T06:17:11.688Z,66.77
2023-09-02T06:18:13.232Z,64.85
2023-09-02T06:19:14.838Z,62.61
2023-09-02T06:20:17.371Z,62.58
2023-09-02T06:21:19.085Z,62.22
2023-09-02T06:22:20.731Z,61.81
2023-09-02T06:23:26.863Z,62.12
2023-09-02T06:24:28.801Z,59.63
2023-09-02T06:25:30.453Z,59.68
2023-09-02T06:26:32.485Z,58.65
2023-09-02T06:27:34.061Z,57.62
2023-09-02T06:28:35.738Z,55.66
2023-09-02T06:29:38.491Z,55.95
2023-09-02T06:30:40.192Z,56.87
2023-09-02T06:31:41.906Z,54.50
2023-09-02T06:32:43.550Z,53.62
2023-09-02T06:33:45.328Z,52.18
2023-09-02T06:34:46.992Z,51.28
2023-09-02T06:35:49.835Z,51.98
2023-09-02T06:36:51.423Z,52.47
2023-09-02T06:37:53.088Z,52.42
2023-09-02T06:38:54.694Z,53.06
2023-09-02T06:39:56.361Z,52.55
2023-09-02T06:40:57.929Z,52.11
2023-09-02T06:41:59.535Z,52.05
2023-09-02T06:43:05.067Z,50.17
2023-09-02T06:44:06.703Z,49.87
2023-09-02T06:45:09.015Z,50.05
2023-09-02T06:46:18.413Z,47.81
2023-09-02T06:47:20.156Z,47.83
2023-09-02T06:48:21.752Z,46.83
2023-09-02T06:49:23.417Z,46.99
2023-09-02T06:50:25.098Z,46.34
2023-09-02T06:51:26.767Z,47.87
2023-09-02T06:52:28.396Z,47.35
2023-09-02T06:53:29.979Z,48.57
2023-09-02T06:54:31.571Z,47.99
2023-09-02T06:55:33.143Z,45.81
2023-09-02T06:56:34.752Z,45.15
2023-09-02T06:57:36.453Z,46.82
2023-09-02T06:58:39.511Z,47.60
2023-09-02T06:59:41.193Z,46.86
2023-09-02T07:00:42.835Z,46.92
2023-09-02T07:01:44.808Z,47.71
2023-09-02T07:02:46.489Z,48.06
2023-09-02T07:03:48.184Z,47.35
2023-09-02T07:04:50.488Z,45.91
2023-09-02T07:05:52.157Z,44.44
2023-09-02T07:06:53.775Z,44.20
2023-09-02T07:07:55.421Z,43.06
2023-09-02T07:08:57.014Z,41.50
2023-09-02T07:09:59.186Z,41.47
2023-09-02T07:11:00.748Z,40.94
2023-09-02T07:12:02.314Z,40.57
2023-09-02T07:13:04.068Z,42.67
2023-09-02T07:14:05.738Z,43.10
2023-09-02T07:15:08.145Z,42.74
2023-09-02T07:16:10.100Z,42.35
2023-09-02T07:17:11.684Z,43.19
2023-09-02T07:18:13.384Z,42.75
2023-09-02T07:19:15.044Z,42.32
2023-09-02T07:20:16.735Z,41.50
2023-09-02T07:21:23.530Z,40.84
2023-09-02T07:22:25.646Z,39.35
2023-09-02T07:23:28.086Z,41.13
2023-09-02T07:24:30.118Z,40.94
2023-09-02T07:25:31.723Z,40.32
2023-09-02T07:26:33.595Z,40.29
2023-09-02T07:27:35.173Z,38.86
2023-09-02T07:28:38.734Z,38.17
2023-09-02T07:29:40.305Z,38.52
2023-09-02T07:30:41.910Z,38.51
2023-09-02T07:31:43.563Z,37.97
2023-09-02T07:32:45.337Z,36.59
2023-09-02T07:33:46.986Z,38.37
2023-09-02T07:34:48.807Z,39.04
2023-09-02T07:35:50.431Z,39.41
2023-09-02T07:36:52.037Z,37.24
2023-09-02T07:37:53.663Z,39.76
2023-09-02T07:38:55.284Z,39.20
2023-09-02T07:39:56.911Z,39.21
2023-09-02T07:40:58.572Z,38.47
2023-09-02T07:42:00.193Z,37.82
2023-09-02T07:43:03.401Z,38.26
2023-09-02T07:44:05.291Z,38.15
2023-09-02T07:45:07.525Z,37.98
2023-09-02T07:46:11.462Z,38.12
2023-09-02T07:47:13.234Z,36.42
2023-09-02T07:48:15.005Z,36.91
2023-09-02T07:49:16.640Z,37.06
2023-09-02T07:50:18.224Z,37.22
2023-09-02T07:51:19.910Z,37.45
2023-09-02T07:52:21.462Z,38.96
2023-09-02T07:53:23.065Z,40.16
2023-09-02T07:54:24.799Z,38.84
2023-09-02T07:55:27.112Z,38.53
2023-09-02T07:56:29.112Z,40.04
2023-09-02T07:57:32.065Z,39.71
2023-09-02T07:58:33.688Z,38.47
2023-09-02T07:59:35.318Z,39.95
2023-09-02T08:00:37.826Z,38.25
2023-09-02T08:01:39.591Z,37.49
2023-09-02T08:02:41.378Z,37.86
2023-09-02T08:03:43.032Z,38.23
2023-09-02T08:04:44.637Z,37.57
2023-09-02T08:05:46.277Z,36.77
2023-09-02T08:06:47.994Z,35.92
2023-09-02T08:07:49.547Z,35.12
2023-09-02T08:08:53.658Z,36.00
2023-09-02T08:09:55.219Z,34.71
2023-09-02T08:11:06.782Z,33.18
2023-09-02T08:12:09.317Z,33.09
2023-09-02T08:13:10.974Z,35.27
2023-09-02T08:14:12.669Z,36.55
2023-09-02T08:15:15.027Z,35.58
2023-09-02T08:16:16.836Z,36.66
2023-09-02T08:17:20.650Z,33.62
2023-09-02T08:18:22.704Z,34.88
2023-09-02T08:19:24.337Z,34.30
2023-09-02T08:20:26.616Z,33.54
2023-09-02T08:21:28.309Z,33.33
2023-09-02T08:22:29.931Z,33.25
2023-09-02T08:23:31.560Z,32.83
2023-09-02T08:24:33.180Z,32.37
2023-09-02T08:25:34.984Z,32.52
2023-09-02T08:26:37.093Z,32.91
2023-09-02T08:27:38.732Z,34.19
2023-09-02T08:28:41.110Z,36.84
2023-09-02T08:29:42.751Z,33.91
2023-09-02T08:30:45.064Z,33.13
2023-09-02T08:31:46.699Z,33.00
2023-09-02T08:32:48.506Z,33.80
2023-09-02T08:33:50.302Z,33.38
2023-09-02T08:34:52.726Z,34.73
2023-09-02T08:35:54.340Z,33.34
2023-09-02T08:36:55.962Z,33.47
2023-09-02T08:37:57.611Z,34.25
2023-09-02T08:38:59.259Z,32.93
2023-09-02T08:40:00.914Z,32.46
2023-09-02T08:41:03.170Z,33.64
2023-09-02T08:42:05.853Z,33.64
2023-09-02T08:43:07.482Z,32.80
2023-09-02T08:44:11.100Z,34.07
2023-09-02T08:45:14.560Z,34.10
2023-09-02T08:46:18.033Z,32.62
2023-09-02T08:47:21.202Z,32.91
2023-09-02T08:48:27.034Z,33.16
2023-09-02T08:49:28.884Z,32.13
2023-09-02T08:50:30.620Z,30.90
2023-09-02T08:51:32.671Z,32.11
2023-09-02T08:52:34.218Z,30.31
2023-09-02T08:53:35.829Z,31.83
2023-09-02T08:54:38.502Z,31.48
2023-09-02T08:55:41.549Z,31.76
2023-09-02T08:56:43.863Z,30.54
2023-09-02T08:57:45.887Z,30.40
2023-09-02T08:58:47.912Z,31.41
2023-09-02T08:59:49.506Z,31.24
2023-09-02T09:00:51.178Z,32.33
2023-09-02T09:01:53.529Z,30.50
2023-09-02T09:02:55.442Z,31.32
2023-09-02T09:03:57.360Z,30.95
2023-09-02T09:05:03.118Z,32.37
2023-09-02T09:06:06.256Z,31.07
2023-09-02T09:07:09.695Z,32.07
2023-09-02T09:08:11.680Z,31.21
2023-09-02T09:09:14.338Z,30.16
2023-09-02T09:10:17.082Z,29.17
2023-09-02T09:11:19.091Z,31.98
2023-09-02T09:12:21.871Z,32.27
2023-09-02T09:13:24.461Z,31.22
2023-09-02T09:14:28.066Z,33.24
2023-09-02T09:15:29.717Z,32.77
2023-09-02T09:16:34.424Z,32.89
2023-09-02T09:17:36.239Z,33.14
2023-09-02T09:18:38.079Z,33.07
2023-09-02T09:19:39.924Z,33.08
2023-09-02T09:20:41.760Z,32.64
2023-09-02T09:21:43.338Z,31.12
2023-09-02T09:22:44.987Z,32.68
2023-09-02T09:23:46.604Z,31.50
2023-09-02T09:24:48.239Z,33.89
2023-09-02T09:25:52.574Z,34.37
2023-09-02T09:26:54.218Z,34.00
2023-09-02T09:28:10.972Z,33.64
2023-09-02T09:29:17.100Z,33.12
2023-09-02T09:30:29.329Z,33.65
2023-09-02T09:31:30.988Z,33.04
2023-09-02T09:32:33.110Z,32.35
2023-09-02T09:33:34.734Z,33.39
2023-09-02T09:34:41.251Z,33.08
2023-09-02T09:35:42.806Z,31.00
2023-09-02T09:36:45.344Z,32.70
2023-09-02T09:37:56.586Z,31.17
2023-09-02T09:39:00.746Z,31.25
2023-09-02T09:40:02.847Z,31.42
2023-09-02T09:41:06.796Z,29.15
2023-09-02T09:42:08.781Z,31.88
2023-09-02T09:43:18.252Z,30.71
2023-09-02T09:44:20.193Z,31.42
2023-09-02T09:45:21.891Z,29.36
2023-09-02T09:46:23.607Z,28.79
2023-09-02T09:47:26.867Z,31.71
2023-09-02T09:48:28.507Z,28.99
2023-09-02T09:49:31.648Z,28.80
2023-09-02T09:50:33.203Z,28.88
2023-09-02T09:51:34.830Z,29.66
2023-09-02T09:52:36.412Z,30.15
2023-09-02T09:53:47.306Z,28.60
2023-09-02T09:54:53.327Z,29.42
2023-09-02T09:55:55.116Z,29.79
2023-09-02T09:56:56.737Z,29.74
2023-09-02T09:57:59.757Z,29.43
2023-09-02T09:59:08.880Z,29.49
2023-09-02T10:00:15.979Z,29.04
2023-09-02T10:01:22.578Z,29.47
2023-09-02T10:02:24.703Z,29.60
2023-09-02T10:03:35.235Z,29.93
2023-09-02T10:04:36.826Z,30.00
2023-09-02T10:05:39.016Z,30.05
2023-09-02T10:06:40.713Z,29.97
2023-09-02T10:07:42.546Z,29.57
2023-09-02T10:08:55.099Z,30.26
2023-09-02T10:09:59.151Z,29.39
2023-09-02T10:11:19.115Z,29.87
2023-09-02T10:12:20.805Z,28.12
2023-09-02T10:13:22.528Z,30.21
2023-09-02T10:14:24.103Z,28.08
2023-09-02T10:15:27.278Z,28.50
2023-09-02T10:16:29.671Z,27.75
2023-09-02T10:17:31.388Z,28.75
2023-09-02T10:18:33.395Z,30.18
2023-09-02T10:19:35.701Z,28.45
2023-09-02T10:20:39.518Z,27.04
2023-09-02T10:21:41.636Z,28.32
2023-09-02T10:22:43.915Z,29.69
2023-09-02T10:23:52.362Z,28.04
2023-09-02T10:25:04.594Z,29.60
2023-09-02T10:26:33.277Z,29.44
2023-09-02T10:27:39.635Z,25.93
2023-09-02T10:28:41.484Z,27.84
2023-09-02T10:29:44.647Z,26.80
2023-09-02T10:30:49.274Z,24.93
2023-09-02T10:31:56.767Z,28.86
2023-09-02T10:33:10.332Z,25.89
2023-09-02T10:34:16.826Z,26.91
2023-09-02T10:35:23.226Z,29.23
2023-09-02T10:36:28.666Z,29.46
2023-09-02T10:37:39.498Z,29.04
2023-09-02T10:38:45.859Z,28.30
2023-09-02T10:39:52.752Z,29.12
2023-09-02T10:40:58.512Z,26.62
2023-09-02T10:42:01.748Z,28.74
2023-09-02T10:43:03.501Z,29.89
2023-09-02T10:44:05.705Z,31.37
2023-09-02T10:45:07.739Z,30.46
2023-09-02T10:46:09.736Z,29.62
2023-09-02T10:47:12.282Z,29.62
2023-09-02T10:48:14.553Z,29.82
2023-09-02T10:49:16.324Z,29.18
2023-09-02T10:50:20.103Z,28.42
2023-09-02T10:51:22.338Z,29.21
2023-09-02T10:52:23.992Z,30.13
2023-09-02T10:53:53.371Z,31.53
2023-09-02T10:55:04.321Z,34.13
2023-09-02T10:56:05.935Z,33.48
2023-09-02T10:57:14.894Z,35.00
2023-09-02T10:58:16.554Z,35.19
2023-09-02T10:59:44.189Z,34.49
2023-09-02T11:00:48.925Z,35.08
2023-09-02T11:01:50.625Z,33.93
2023-09-02T11:02:53.899Z,33.63
2023-09-02T11:03:55.943Z,33.04
2023-09-02T11:04:58.508Z,32.32
2023-09-02T11:06:07.521Z,29.69
2023-09-02T11:07:21.654Z,28.78
2023-09-02T11:08:50.497Z,31.17
2023-09-02T11:09:55.095Z,32.47
2023-09-02T11:10:57.016Z,33.93
2023-09-02T11:12:11.314Z,32.50
2023-09-02T11:13:12.997Z,30.44
2023-09-02T11:14:17.728Z,31.10
2023-09-02T11:15:19.827Z,31.48
2023-09-02T11:16:21.726Z,32.40
2023-09-02T11:17:30.833Z,34.85
2023-09-02T11:18:35.475Z,33.38
2023-09-02T11:19:58.192Z,33.38
2023-09-02T11:21:00.044Z,32.19
2023-09-02T11:22:02.173Z,32.54
2023-09-02T11:23:05.677Z,32.38
2023-09-02T11:24:17.257Z,32.67
2023-09-02T11:25:28.014Z,33.44
2023-09-02T11:26:29.698Z,33.03
2023-09-02T11:28:01.946Z,37.74
2023-09-02T11:29:21.062Z,35.96
2023-09-02T11:30:27.073Z,36.12
2023-09-02T11:31:29.794Z,35.61
2023-09-02T11:32:44.371Z,38.69
2023-09-02T11:33:49.196Z,41.69
2023-09-02T11:34:50.832Z,39.33
2023-09-02T11:35:53.548Z,38.41
2023-09-02T11:36:56.562Z,37.74
2023-09-02T11:37:58.434Z,37.93
2023-09-02T11:39:00.043Z,39.89
2023-09-02T11:40:15.096Z,38.29
2023-09-02T11:41:22.817Z,37.01
2023-09-02T11:42:28.571Z,39.35
2023-09-02T11:43:32.610Z,38.57
2023-09-02T11:44:34.652Z,37.76
2023-09-02T11:45:38.253Z,40.18
2023-09-02T11:46:40.436Z,40.75
2023-09-02T11:47:42.209Z,40.68
2023-09-02T11:48:43.799Z,40.93
2023-09-02T11:49:45.490Z,40.71
2023-09-02T11:50:47.197Z,42.15
2023-09-02T11:51:48.807Z,44.51
2023-09-02T11:52:54.148Z,42.98
2023-09-02T11:53:56.604Z,43.39
2023-09-02T11:54:58.217Z,42.58
2023-09-02T11:55:59.845Z,43.38
2023-09-02T11:57:02.117Z,40.15
2023-09-02T11:58:15.381Z,42.80
2023-09-02T11:59:21.051Z,44.30
2023-09-02T12:00:24.266Z,44.19
2023-09-02T12:01:25.970Z,43.59
2023-09-02T12:02:27.755Z,43.19
2023-09-02T12:03:30.029Z,44.42
2023-09-02T12:04:42.243Z,42.21
2023-09-02T12:05:50.989Z,41.51
2023-09-02T12:06:53.589Z,43.85
2023-09-02T12:07:55.198Z,44.45
2023-09-02T12:08:57.344Z,44.97
2023-09-02T12:09:59.024Z,43.58
2023-09-02T12:11:04.686Z,40.78
2023-09-02T12:12:07.677Z,41.44
2023-09-02T12:13:09.992Z,40.41
2023-09-02T12:14:12.145Z,44.49
2023-09-02T12:15:18.935Z,44.17
2023-09-02T12:16:23.336Z,44.98
2023-09-02T12:17:25.236Z,45.43
2023-09-02T12:18:27.049Z,45.35
2023-09-02T12:19:29.701Z,46.16
2023-09-02T12:20:31.798Z,47.13
2023-09-02T12:21:35.731Z,46.14
2023-09-02T12:22:38.385Z,44.82
2023-09-02T12:23:40.046Z,46.05
2023-09-02T12:24:41.710Z,44.14
2023-09-02T12:25:43.345Z,45.31
2023-09-02T12:26:48.400Z,48.08
2023-09-02T12:27:51.000Z,45.25
2023-09-02T12:28:53.937Z,44.27
2023-09-02T12:29:58.723Z,42.77
2023-09-02T12:31:00.557Z,43.61
2023-09-02T12:32:02.376Z,42.75
2023-09-02T12:33:04.663Z,42.91
2023-09-02T12:34:06.170Z,44.34
2023-09-02T12:35:11.429Z,44.64
2023-09-02T12:36:13.022Z,48.17
2023-09-02T12:37:17.592Z,45.22
2023-09-02T12:38:21.789Z,44.19
2023-09-02T12:39:28.988Z,46.84
2023-09-02T12:40:31.298Z,47.78
2023-09-02T12:41:39.486Z,49.40
2023-09-02T12:42:42.416Z,43.99
2023-09-02T12:43:44.119Z,43.37
2023-09-02T12:45:03.777Z,44.77
2023-09-02T12:46:05.756Z,46.58
2023-09-02T12:47:09.785Z,45.22
2023-09-02T12:48:11.454Z,43.48
2023-09-02T12:49:17.828Z,44.17
2023-09-02T12:50:23.012Z,43.74
2023-09-02T12:51:31.370Z,45.24
2023-09-02T12:52:33.451Z,45.75
2023-09-02T12:53:35.112Z,46.83
2023-09-02T12:54:36.745Z,47.69
2023-09-02T12:55:41.443Z,47.64
2023-09-02T12:56:43.090Z,45.33
2023-09-02T12:57:44.652Z,46.66
2023-09-02T12:58:46.210Z,46.29
2023-09-02T12:59:47.871Z,42.61
2023-09-02T13:00:49.493Z,44.37
2023-09-02T13:01:52.046Z,43.82
2023-09-02T13:02:54.820Z,45.83
2023-09-02T13:03:59.479Z,46.08
2023-09-02T13:05:01.224Z,46.09
2023-09-02T13:06:02.844Z,43.21
2023-09-02T13:07:04.680Z,44.67
2023-09-02T13:08:06.502Z,45.85
2023-09-02T13:09:08.121Z,46.65
2023-09-02T13:10:11.110Z,46.02
2023-09-02T13:11:12.713Z,47.94
2023-09-02T13:12:14.379Z,48.30
2023-09-02T13:13:17.437Z,48.60
2023-09-02T13:14:19.264Z,46.79
2023-09-02T13:15:23.589Z,47.37
2023-09-02T13:16:25.798Z,47.14
2023-09-02T13:17:27.725Z,45.37
2023-09-02T13:18:29.545Z,44.83
2023-09-02T13:19:31.255Z,46.14
2023-09-02T13:20:36.938Z,42.33
2023-09-02T13:21:38.761Z,46.34
2023-09-02T13:22:41.833Z,43.97
2023-09-02T13:23:43.841Z,45.68
2023-09-02T13:24:47.344Z,44.85